Time;durP1;ratioP1;P1;durP2;ratioP2;P2;SDS_P1;SDS_P2;PMS_P1;PMS_P2;Temp;Humidity;BMP_temperature;BMP_pressure;BME280_temperature;BME280_humidity;BME280_pressure;Samples;Min_cycle;Max_cycle;Signal;HPM_P1;HPM_P2
2022/06/12 01:25:26;;;;;;;2.97;1.35;;;;;;;16.51;100.00;94998.09;5729910;23;20057;-87
2022/06/12 01:28:32;;;;;;;3.70;1.52;;;;;;;16.60;100.00;95003.50;4977390;28;20033;-87
2022/06/12 01:31:09;;;;;;;1.98;1.15;;;;;;;16.70;100.00;95002.53;4985708;28;20495;-87
2022/06/12 01:33:47;;;;;;;4.20;1.48;;;;;;;16.45;100.00;95005.31;4988076;28;20030;-87
2022/06/12 01:36:16;;;;;;;2.60;1.50;;;;;;;16.23;100.00;94996.16;4978699;28;20033;-88
2022/06/12 01:38:44;;;;;;;2.67;1.40;;;;;;;16.16;100.00;95005.50;4980522;28;20030;-88
2022/06/12 01:41:24;;;;;;;3.58;1.52;;;;;;;16.35;100.00;95000.19;4996553;28;20034;-88
2022/06/12 01:43:58;;;;;;;5.97;1.38;;;;;;;16.50;100.00;95002.63;4997148;28;20466;-88
2022/06/12 01:46:29;;;;;;;2.40;1.33;;;;;;;16.72;100.00;95006.47;4995640;28;20037;-88
2022/06/12 01:49:21;;;;;;;3.35;1.20;;;;;;;16.70;100.00;95007.84;4996342;28;20061;-88
2022/06/12 01:52:08;;;;;;;4.65;1.50;;;;;;;16.71;100.00;95004.91;4989833;28;20511;-87
2022/06/12 01:54:46;;;;;;;3.55;1.23;;;;;;;16.73;100.00;95002.75;4990846;28;20344;-88
2022/06/12 01:57:45;;;;;;;2.90;1.30;;;;;;;16.46;100.00;94998.97;4984627;28;20513;-88
2022/06/12 02:00:14;;;;;;;4.10;1.58;;;;;;;16.24;100.00;94997.72;4951197;28;20483;-88
2022/06/12 02:02:39;;;;;;;3.28;1.65;;;;;;;16.33;100.00;94997.03;4957549;28;20042;-88
2022/06/12 02:05:22;;;;;;;1.77;1.20;;;;;;;16.44;100.00;94990.53;4958806;28;20336;-89
2022/06/12 02:08:05;;;;;;;2.43;1.40;;;;;;;16.28;100.00;94983.91;4941777;29;20027;-89
2022/06/12 02:10:35;;;;;;;1.73;1.40;;;;;;;15.99;100.00;94990.91;4957483;29;20034;-89
2022/06/12 02:13:11;;;;;;;2.25;1.35;;;;;;;16.23;100.00;94982.13;4958508;28;20039;-89
2022/06/12 02:15:57;;;;;;;2.15;1.33;;;;;;;16.15;100.00;94973.00;4957574;29;20027;-88
2022/06/12 02:18:32;;;;;;;6.18;1.50;;;;;;;16.19;100.00;94984.56;4957521;29;20035;-89
2022/06/12 02:21:06;;;;;;;4.85;1.50;;;;;;;16.09;100.00;94984.72;4958282;28;20082;-89
2022/06/12 02:23:45;;;;;;;3.90;1.50;;;;;;;16.27;100.00;94983.13;4957476;29;20042;-88
2022/06/12 02:26:21;;;;;;;1.50;1.40;;;;;;;15.94;100.00;94989.16;4958667;28;20130;-88
2022/06/12 02:28:53;;;;;;;4.18;1.70;;;;;;;15.90;100.00;94988.13;4957085;29;20043;-89
2022/06/12 02:31:26;;;;;;;2.30;1.42;;;;;;;16.01;100.00;94988.00;4957357;29;20056;-88
2022/06/12 02:34:02;;;;;;;2.17;1.50;;;;;;;15.90;100.00;94993.41;4957121;29;20471;-89
2022/06/12 02:36:40;;;;;;;3.95;1.38;;;;;;;15.83;100.00;94990.34;4957294;29;20030;-88
2022/06/12 02:39:11;;;;;;;1.98;1.52;;;;;;;16.11;100.00;94985.22;4957477;29;20337;-88
2022/06/12 02:41:54;;;;;;;2.58;1.48;;;;;;;16.19;100.00;94983.78;4957318;29;20039;-88
2022/06/12 02:44:49;;;;;;;3.28;1.55;;;;;;;16.27;100.00;94983.13;4957466;29;20031;-89
2022/06/12 02:47:21;;;;;;;6.07;1.38;;;;;;;16.31;100.00;94986.78;4957213;29;20027;-89
2022/06/12 02:49:48;;;;;;;2.67;1.40;;;;;;;16.33;100.00;94992.56;4956836;29;20039;-89
2022/06/12 02:52:35;;;;;;;1.95;1.50;;;;;;;16.04;100.00;94990.88;4957198;29;20038;-89
2022/06/12 02:55:28;;;;;;;2.08;1.42;;;;;;;15.91;100.00;94995.00;4957172;29;20051;-88
2022/06/12 02:58:30;;;;;;;2.50;1.63;;;;;;;16.15;100.00;94999.44;4959039;28;20061;-88
2022/06/12 03:01:07;;;;;;;3.92;1.58;;;;;;;15.96;100.00;95002.06;4944777;29;20038;-89
2022/06/12 03:03:32;;;;;;;2.17;1.73;;;;;;;15.76;100.00;95003.09;4944880;29;20468;-88
2022/06/12 03:05:59;;;;;;;3.78;1.65;;;;;;;15.91;100.00;95008.19;4960404;28;20129;-88
2022/06/12 03:08:34;;;;;;;2.78;1.67;;;;;;;16.13;100.00;95004.22;4975185;28;20512;-88
2022/06/12 03:11:03;;;;;;;2.42;1.27;;;;;;;16.33;100.00;95002.34;4998781;28;20431;-89
2022/06/12 03:13:31;;;;;;;3.28;1.40;;;;;;;16.48;100.00;95002.09;4999369;28;20072;-88
2022/06/12 03:16:01;;;;;;;5.03;1.60;;;;;;;16.32;100.00;95004.22;4998921;28;20069;-88
2022/06/12 03:18:33;;;;;;;2.47;1.50;;;;;;;16.30;100.00;95011.66;4970942;28;20069;-88
2022/06/12 03:21:21;;;;;;;1.58;1.42;;;;;;;16.39;100.00;95004.63;4997244;28;20030;-88
2022/06/12 03:24:13;;;;;;;3.63;1.52;;;;;;;16.62;100.00;95006.66;4983026;28;20034;-89
2022/06/12 03:26:58;;;;;;;4.40;1.92;;;;;;;16.58;100.00;95005.66;4994783;28;20507;-89
2022/06/12 03:29:58;;;;;;;1.85;1.50;;;;;;;16.53;100.00;95009.97;4990575;28;20041;-87
2022/06/12 03:32:45;;;;;;;2.28;1.52;;;;;;;16.66;100.00;95007.66;4986683;28;20049;-90
2022/06/12 03:35:41;;;;;;;3.92;1.40;;;;;;;16.69;100.00;95012.38;4994106;28;20029;-90
2022/06/12 03:38:17;;;;;;;2.17;1.33;;;;;;;16.62;100.00;95010.09;4986290;28;20050;-88
2022/06/12 03:40:51;;;;;;;4.47;1.45;;;;;;;16.73;100.00;95018.63;4979198;28;20022;-88
2022/06/12 03:43:48;;;;;;;2.10;1.48;;;;;;;16.62;100.00;95015.38;4962246;28;20093;-88
2022/06/12 03:46:32;;;;;;;1.45;1.23;;;;;;;16.48;100.00;95028.53;4944005;29;20086;-88
2022/06/12 03:49:07;;;;;;;1.35;1.25;;;;;;;16.77;100.00;95026.78;4959604;29;20352;-88
2022/06/12 03:51:44;;;;;;;2.53;1.70;;;;;;;16.75;100.00;95029.72;4960918;28;20043;-88
2022/06/12 03:54:13;;;;;;;3.00;1.42;;;;;;;17.04;100.00;95025.31;4960516;28;20027;-88
2022/06/12 03:59:59;;;;;;;4.78;1.60;;;;;;;16.97;100.00;95023.00;4960379;29;20477;-88
2022/06/12 04:02:26;;;;;;;2.53;1.65;;;;;;;16.89;100.00;95021.81;4943779;29;20031;-88
2022/06/12 04:04:52;;;;;;;2.47;1.50;;;;;;;16.95;100.00;95028.59;4959476;29;20429;-88
2022/06/12 04:07:20;;;;;;;2.15;1.38;;;;;;;17.06;100.00;95025.78;4959654;29;20035;-88
2022/06/12 04:09:49;;;;;;;5.32;1.75;;;;;;;17.00;100.00;95026.94;4958675;28;20042;-89
2022/06/12 04:12:18;;;;;;;2.22;1.50;;;;;;;16.88;100.00;95020.25;4959681;29;20476;-88
2022/06/12 04:14:54;;;;;;;2.88;1.63;;;;;;;16.92;100.00;95025.72;4959281;29;20027;-88
2022/06/12 04:17:22;;;;;;;2.78;1.50;;;;;;;16.78;100.00;95028.34;4959899;29;20085;-88
2022/06/12 04:19:59;;;;;;;1.65;1.30;;;;;;;16.55;100.00;95030.81;4959375;29;20043;-88
2022/06/12 04:22:35;;;;;;;2.50;1.67;;;;;;;16.42;100.00;95028.91;4945248;29;20027;-88
2022/06/12 04:25:14;;;;;;;2.70;1.40;;;;;;;16.75;100.00;95027.06;4943293;29;20063;-88
2022/06/12 04:27:47;;;;;;;5.65;1.40;;;;;;;16.80;100.00;95026.19;4959315;28;20027;-88
2022/06/12 04:30:22;;;;;;;2.20;1.48;;;;;;;16.75;100.00;95026.28;4958946;29;20420;-88
2022/06/12 04:32:48;;;;;;;2.00;1.30;;;;;;;16.33;100.00;95018.19;4958639;29;20027;-88
2022/06/12 04:35:15;;;;;;;1.90;1.60;;;;;;;16.56;100.00;95026.31;4960055;28;20019;-88
2022/06/12 04:37:42;;;;;;;4.18;1.63;;;;;;;16.42;100.00;95028.91;4959157;29;20038;-87
2022/06/12 04:40:19;;;;;;;2.97;1.85;;;;;;;16.59;100.00;95029.19;4959101;29;20421;-87
2022/06/12 04:42:45;;;;;;;2.20;1.52;;;;;;;16.52;100.00;95029.56;4959153;29;20037;-87
2022/06/12 04:45:11;;;;;;;8.07;1.63;;;;;;;16.71;100.00;95023.44;4959958;28;20043;-86
2022/06/12 04:47:49;;;;;;;2.13;1.67;;;;;;;16.70;100.00;95015.78;4958720;29;20594;-86
2022/06/12 04:50:15;;;;;;;2.03;1.67;;;;;;;16.80;100.00;95020.91;4959500;28;20030;-86
2022/06/12 04:52:41;;;;;;;1.58;1.40;;;;;;;16.73;100.00;95015.22;4958572;28;20429;-85
2022/06/12 04:55:07;;;;;;;3.05;1.40;;;;;;;16.90;100.00;95012.81;4977649;28;20082;-86
2022/06/12 04:57:32;;;;;;;2.83;1.40;;;;;;;17.14;100.00;95016.38;4977661;28;20037;-86
2022/06/12 04:59:58;;;;;;;2.35;1.70;;;;;;;17.29;100.00;95018.75;4977676;28;20483;-86
2022/06/12 05:02:24;;;;;;;6.13;1.48;;;;;;;17.35;100.00;95022.88;4977495;28;20089;-86
2022/06/12 05:04:50;;;;;;;1.65;1.45;;;;;;;17.24;100.00;95024.16;4977379;28;20109;-86
2022/06/12 05:07:15;;;;;;;3.03;1.63;;;;;;;17.23;100.00;95028.66;4977621;28;20022;-85
2022/06/12 05:09:42;;;;;;;3.65;1.77;;;;;;;16.95;100.00;95025.16;4977585;28;20117;-86
2022/06/12 05:12:09;;;;;;;3.78;2.20;;;;;;;16.81;100.00;95031.22;4977358;28;20022;-86
2022/06/12 05:14:35;;;;;;;6.30;1.90;;;;;;;16.91;100.00;95032.09;4977546;28;20479;-86
2022/06/12 05:17:03;;;;;;;2.33;1.65;;;;;;;17.44;100.00;95033.59;4978436;28;20022;-86
2022/06/12 05:19:33;;;;;;;2.92;1.73;;;;;;;17.73;100.00;95034.34;4977214;28;20026;-86
2022/06/12 05:22:00;;;;;;;2.83;1.80;;;;;;;17.90;100.00;95037.16;4961001;28;20034;-86
2022/06/12 05:24:26;;;;;;;3.42;1.95;;;;;;;18.12;100.00;95032.22;4976969;28;20031;-86
2022/06/12 05:26:51;;;;;;;2.30;1.50;;;;;;;18.26;100.00;95032.97;4976994;28;20033;-86
2022/06/12 05:29:21;;;;;;;3.63;1.90;;;;;;;18.08;100.00;95034.72;4977221;28;20436;-85
2022/06/12 05:31:46;;;;;;;3.28;1.80;;;;;;;17.75;100.00;95040.13;4978432;28;20041;-85
2022/06/12 05:34:13;;;;;;;2.67;1.95;;;;;;;17.88;100.00;95039.31;4977208;28;20034;-89
2022/06/12 05:36:39;;;;;;;4.15;2.00;;;;;;;18.04;100.00;95026.56;4961019;28;20018;-88
2022/06/12 05:39:04;;;;;;;6.68;2.10;;;;;;;18.28;100.00;95036.13;4961139;28;20424;-89
2022/06/12 05:41:30;;;;;;;5.15;2.20;;;;;;;18.27;100.00;95037.19;4961232;28;20069;-89
2022/06/12 05:43:55;;;;;;;4.47;1.90;;;;;;;18.18;100.00;95039.78;4961128;28;20078;-88
2022/06/12 05:46:21;;;;;;;5.57;2.00;;;;;;;18.25;100.00;95039.38;4978403;28;20027;-88
2022/06/12 05:48:47;;;;;;;3.08;1.60;;;;;;;18.91;100.00;95040.75;4976946;28;20034;-88
2022/06/12 05:51:16;;;;;;;1.85;1.40;;;;;;;19.22;100.00;95045.31;4977001;28;20022;-88
2022/06/12 05:53:41;;;;;;;3.20;1.73;;;;;;;19.46;100.00;95028.22;4976713;28;20342;-88
2022/06/12 05:56:09;;;;;;;3.13;1.67;;;;;;;19.06;100.00;95032.44;4961114;28;20019;-89
2022/06/12 05:58:36;;;;;;;2.38;1.70;;;;;;;19.18;100.00;95037.19;4976923;28;20030;-86
2022/06/12 06:01:04;;;;;;;1.55;1.30;;;;;;;19.55;100.00;95036.22;4976980;28;20057;-88
2022/06/12 06:03:29;;;;;;;3.30;1.60;;;;;;;19.72;100.00;95038.94;4976872;28;20031;-89
2022/06/12 06:05:54;;;;;;;1.60;1.17;;;;;;;19.99;100.00;95047.78;4977027;28;20451;-89
2022/06/12 06:08:20;;;;;;;3.10;1.52;;;;;;;20.19;100.00;95041.06;4976844;28;20038;-89
2022/06/12 06:10:46;;;;;;;4.85;1.50;;;;;;;20.40;100.00;95045.78;4976756;28;20114;-89
2022/06/12 06:13:11;;;;;;;3.72;1.17;;;;;;;20.57;100.00;95052.19;4960546;28;20034;-90
2022/06/12 06:15:38;;;;;;;1.52;1.38;;;;;;;20.74;100.00;95054.84;4977493;28;21079;-90
2022/06/12 06:18:04;;;;;;;3.50;1.55;;;;;;;20.76;100.00;95063.28;4977594;28;20027;-90
2022/06/12 06:20:33;;;;;;;3.15;1.90;;;;;;;20.22;100.00;95052.97;4977787;28;20038;-89
2022/06/12 06:22:58;;;;;;;2.75;1.75;;;;;;;20.21;100.00;95051.41;4977993;28;20073;-90
2022/06/12 06:25:25;;;;;;;7.53;1.85;;;;;;;20.41;100.00;95065.19;4976358;28;20388;-90
2022/06/12 06:27:51;;;;;;;2.47;1.80;;;;;;;20.67;100.00;95062.53;4977407;28;20054;-87
2022/06/12 06:30:18;;;;;;;3.83;1.42;;;;;;;20.60;100.00;95072.88;4993498;28;20073;-87
2022/06/12 06:32:44;;;;;;;2.47;1.60;;;;;;;20.61;100.00;95066.44;4998055;28;20034;-87
2022/06/12 06:35:12;;;;;;;2.85;1.70;;;;;;;20.67;100.00;95067.06;4995006;28;20039;-88
2022/06/12 06:37:37;;;;;;;6.68;1.63;;;;;;;20.50;100.00;95063.31;4980121;28;20061;-88
2022/06/12 06:40:04;;;;;;;2.53;2.08;;;;;;;20.78;100.00;95065.66;4980240;28;20066;-87
2022/06/12 06:42:30;;;;;;;2.20;1.52;;;;;;;20.73;100.00;95061.28;4980275;28;20034;-87
2022/06/12 06:47:40;;;;;;;1.88;1.48;;;;;;;21.20;100.00;95070.44;4981034;28;20038;-87
2022/06/12 06:50:07;;;;;;;2.30;1.45;;;;;;;21.43;100.00;95075.56;4980392;28;20039;-87
2022/06/12 06:52:33;;;;;;;2.35;1.23;;;;;;;21.58;100.00;95077.69;4980401;28;20034;-87
2022/06/12 06:54:59;;;;;;;4.40;1.80;;;;;;;21.63;100.00;95067.94;4980077;28;20396;-87
2022/06/12 06:57:24;;;;;;;2.67;1.75;;;;;;;21.26;100.00;95076.38;4980108;28;20026;-87
2022/06/12 06:59:50;;;;;;;1.67;1.58;;;;;;;21.24;100.00;95074.06;4979671;28;20027;-88
2022/06/12 07:02:15;;;;;;;1.55;1.45;;;;;;;21.59;100.00;95079.25;4980224;28;20398;-87
2022/06/12 07:04:40;;;;;;;1.77;1.55;;;;;;;21.52;100.00;95081.66;4981448;28;20035;-87
2022/06/12 07:07:08;;;;;;;5.63;1.63;;;;;;;21.49;100.00;95079.59;4981016;28;20030;-87
2022/06/12 07:09:35;;;;;;;2.13;1.10;;;;;;;21.71;100.00;95080.50;4979768;28;20042;-86
2022/06/12 07:12:01;;;;;;;1.55;1.20;;;;;;;21.98;100.00;95071.25;4979796;28;20035;-87
2022/06/12 07:14:27;;;;;;;3.25;1.48;;;;;;;22.15;100.00;95073.03;4979744;28;20035;-87
2022/06/12 07:16:53;;;;;;;2.38;1.52;;;;;;;22.28;100.00;95070.44;4980056;28;20041;-87
2022/06/12 07:19:18;;;;;;;2.05;1.45;;;;;;;22.12;100.00;95076.34;4980994;28;20038;-87
2022/06/12 07:21:44;;;;;;;2.40;1.70;;;;;;;22.21;100.00;95078.97;4979511;28;20039;-87
2022/06/12 07:24:11;;;;;;;2.42;1.65;;;;;;;22.35;100.00;95081.34;4980755;28;20425;-87
2022/06/12 07:26:40;;;;;;;2.10;1.23;;;;;;;22.46;100.00;95071.09;4980541;28;20031;-87
2022/06/12 07:29:06;;;;;;;4.97;1.50;;;;;;;22.24;100.00;95080.22;4979353;28;20034;-87
2022/06/12 07:31:32;;;;;;;1.83;1.30;;;;;;;22.55;100.00;95073.72;4979193;28;20037;-87
2022/06/12 07:33:58;;;;;;;3.17;1.60;;;;;;;22.87;100.00;95079.41;4979723;28;20506;-87
2022/06/12 07:36:24;;;;;;;2.22;1.65;;;;;;;22.85;100.00;95073.63;4979411;28;20027;-87
2022/06/12 07:38:51;;;;;;;1.67;1.52;;;;;;;23.20;100.00;95081.28;4979048;28;20031;-88
2022/06/12 07:41:18;;;;;;;1.70;1.50;;;;;;;23.21;100.00;95071.38;4979171;28;20522;-86
2022/06/12 07:43:45;;;;;;;5.00;1.85;;;;;;;23.21;100.00;95074.81;4979142;28;20336;-86
2022/06/12 07:46:14;;;;;;;3.67;1.90;;;;;;;23.41;100.00;95080.47;4980077;28;20030;-91
2022/06/12 07:48:40;;;;;;;2.03;1.23;;;;;;;23.49;100.00;95065.44;4978793;28;20341;-91
2022/06/12 07:51:10;;;;;;;3.95;1.60;;;;;;;23.34;100.00;95075.66;4978842;28;20026;-92
2022/06/12 07:53:37;;;;;;;9.18;1.85;;;;;;;23.71;97.16;95072.25;4963210;28;20428;-91
2022/06/12 07:56:03;;;;;;;1.63;1.48;;;;;;;23.78;82.38;95072.44;4979179;28;20437;-91
2022/06/12 07:58:29;;;;;;;2.90;1.83;;;;;;;23.72;86.65;95068.44;4978698;28;20030;-91
2022/06/12 08:00:59;;;;;;;2.65;1.70;;;;;;;23.93;87.98;95070.22;4978937;28;20039;-92
2022/06/12 08:03:25;;;;;;;3.20;1.67;;;;;;;23.20;70.60;95073.25;4978779;28;20081;-91
2022/06/12 08:05:51;;;;;;;3.20;1.80;;;;;;;23.69;80.29;95074.47;4978525;28;20033;-92
2022/06/12 08:08:17;;;;;;;8.50;1.80;;;;;;;23.33;70.27;95067.97;4978483;28;20034;-92
2022/06/12 08:10:42;;;;;;;8.80;2.10;;;;;;;23.74;83.88;95071.56;4962550;28;20063;-91
2022/06/12 08:13:13;;;;;;;5.65;1.83;;;;;;;23.46;72.27;95063.44;4978488;28;20056;-91
2022/06/12 08:15:41;;;;;;;4.65;1.85;;;;;;;23.76;73.72;95066.66;4978507;28;20061;-91
2022/06/12 08:18:06;;;;;;;2.65;1.45;;;;;;;23.97;70.88;95068.44;4978333;28;20038;-91
2022/06/12 08:20:34;;;;;;;3.35;1.58;;;;;;;23.63;72.41;95067.78;4978211;28;20400;-91
2022/06/12 08:23:05;;;;;;;1.95;1.63;;;;;;;24.12;76.75;95067.00;4962106;28;20455;-91
2022/06/12 08:25:34;;;;;;;4.10;1.60;;;;;;;24.22;96.18;95068.41;4978172;28;20487;-91
2022/06/12 08:28:00;;;;;;;3.63;2.00;;;;;;;24.35;79.95;95061.16;4962018;28;20062;-92
2022/06/12 08:30:27;;;;;;;1.83;1.48;;;;;;;24.19;76.21;95058.38;4962321;28;20039;-92
2022/06/12 08:32:53;;;;;;;2.50;1.60;;;;;;;24.35;72.78;95056.56;4978400;28;20042;-90
2022/06/12 08:35:23;;;;;;;6.53;1.75;;;;;;;24.08;73.23;95056.19;4978623;28;20314;-91
2022/06/12 08:37:50;;;;;;;4.28;1.80;;;;;;;24.08;74.62;95060.75;4962157;28;20464;-89
2022/06/12 08:40:27;;;;;;;4.60;1.80;;;;;;;24.21;100.00;95051.59;4978207;28;20129;-91
2022/06/12 08:43:03;;;;;;;2.95;1.65;;;;;;;24.12;70.74;95053.59;4977895;28;20037;-91
2022/06/12 08:45:34;;;;;;;2.28;1.83;;;;;;;24.42;71.47;95056.78;4961809;28;20038;-91
2022/06/12 08:47:59;;;;;;;8.65;1.83;;;;;;;24.38;94.14;95055.88;4977950;28;20436;-91
2022/06/12 08:51:11;;;;;;;5.80;1.73;;;;;;;24.54;63.27;95063.22;4978836;28;20117;-91
2022/06/12 08:53:48;;;;;;;2.53;1.73;;;;;;;24.31;66.52;95058.38;4976703;28;20447;-91
2022/06/12 08:56:31;;;;;;;2.42;1.50;;;;;;;24.42;69.97;95058.66;4961416;28;20022;-92
2022/06/12 08:59:34;;;;;;;2.72;1.60;;;;;;;24.26;69.53;95058.63;4977657;28;20543;-91
2022/06/12 09:02:02;;;;;;;2.58;1.50;;;;;;;24.82;69.20;95065.16;4957109;28;20038;-91
2022/06/12 09:04:28;;;;;;;3.00;1.80;;;;;;;24.95;63.07;95055.16;4961702;28;20023;-91
2022/06/12 09:07:13;;;;;;;2.47;1.60;;;;;;;24.54;61.42;95063.22;4977375;28;20109;-91
2022/06/12 09:10:03;;;;;;;2.38;1.70;;;;;;;24.54;66.64;95058.63;4961590;28;20117;-91
2022/06/12 09:12:51;;;;;;;3.17;1.77;;;;;;;24.37;70.10;95066.94;4978599;28;20077;-91
2022/06/12 09:15:50;;;;;;;3.00;1.83;;;;;;;24.39;90.69;95070.84;4977455;28;20470;-91
2022/06/12 09:18:37;;;;;;;3.97;1.92;;;;;;;24.86;64.52;95068.69;4978429;28;20036;-90
2022/06/12 09:21:15;;;;;;;3.83;2.00;;;;;;;24.38;73.98;95058.56;4977756;28;20032;-91
2022/06/12 09:23:51;;;;;;;7.07;1.77;;;;;;;24.54;75.29;95060.56;4977272;28;20384;-91
2022/06/12 09:26:41;;;;;;;7.28;1.80;;;;;;;24.66;74.23;95060.47;4977008;28;20081;-91
2022/06/12 09:29:21;;;;;;;2.03;1.70;;;;;;;24.50;78.03;95057.75;4977385;28;20124;-90
2022/06/12 09:32:14;;;;;;;6.20;1.60;;;;;;;25.18;80.05;95068.75;4977263;28;20033;-91
2022/06/12 09:35:04;;;;;;;2.42;1.85;;;;;;;25.60;73.05;95067.50;4978183;28;20022;-91
2022/06/12 09:38:19;;;;;;;2.38;1.67;;;;;;;25.31;66.51;95068.69;4978212;28;20078;-90
2022/06/12 09:41:05;;;;;;;;;;;;;;;25.63;66.22;95066.81;4978519;28;20027;-91
2022/06/12 09:43:50;;;;;;;8.15;1.60;;;;;;;25.72;64.60;95071.22;4976935;28;19965;-91
2022/06/12 09:46:36;;;;;;;3.55;1.60;;;;;;;25.69;66.70;95067.34;4978253;28;20038;-91
2022/06/12 09:49:15;;;;;;;3.58;1.90;;;;;;;25.64;65.65;95064.91;4976758;28;20137;-91
2022/06/12 09:52:09;;;;;;;5.07;1.67;;;;;;;25.73;66.31;95048.63;4977150;28;20421;-91
2022/06/12 09:55:12;;;;;;;8.25;2.17;;;;;;;25.92;65.23;95048.69;4976826;28;20018;-91
2022/06/12 09:57:44;;;;;;;6.15;2.00;;;;;;;25.51;65.27;95048.13;4947189;28;20066;-90
2022/06/12 10:00:10;;;;;;;4.18;1.90;;;;;;;25.89;69.19;95040.56;4978110;28;20035;-90
2022/06/12 10:02:48;;;;;;;5.40;2.10;;;;;;;25.87;66.63;95040.13;4977775;28;20033;-90
2022/06/12 10:05:27;;;;;;;4.65;1.77;;;;;;;25.65;66.96;95037.72;4977871;28;20073;-90
2022/06/12 10:08:05;;;;;;;3.95;1.70;;;;;;;25.74;68.62;95037.53;4978960;28;20041;-90
2022/06/12 10:10:45;;;;;;;4.28;1.80;;;;;;;26.00;67.27;95038.88;4980867;28;20031;-90
2022/06/12 10:13:16;;;;;;;2.53;1.70;;;;;;;26.28;71.00;95040.66;4980734;28;20035;-90
2022/06/12 10:15:47;;;;;;;3.25;1.67;;;;;;;26.10;65.59;95038.31;4980641;28;20066;-90
2022/06/12 10:18:27;;;;;;;2.45;1.83;;;;;;;26.23;65.70;95027.47;4980637;28;20027;-91
2022/06/12 10:20:55;;;;;;;2.80;1.73;;;;;;;26.21;74.91;95035.13;4980923;28;20042;-92
2022/06/12 10:23:22;;;;;;;2.40;1.70;;;;;;;26.03;70.91;95034.72;4964319;28;20034;-91
2022/06/12 10:25:57;;;;;;;6.53;1.60;;;;;;;26.21;67.05;95032.44;4980220;28;20118;-92
2022/06/12 10:28:32;;;;;;;5.30;1.75;;;;;;;25.36;70.73;95034.34;4980447;28;20035;-91
2022/06/12 10:31:10;;;;;;;5.25;2.15;;;;;;;25.73;67.57;95027.94;4980466;28;20408;-91
2022/06/12 10:33:48;;;;;;;4.00;1.73;;;;;;;25.92;67.60;95026.44;4980556;28;20037;-91
2022/06/12 10:36:29;;;;;;;2.50;1.73;;;;;;;26.33;63.56;95026.19;4980271;28;20059;-91
2022/06/12 10:39:17;;;;;;;3.00;1.70;;;;;;;26.84;64.59;95027.91;4980493;28;20031;-91
2022/06/12 10:41:43;;;;;;;4.32;2.17;;;;;;;26.15;62.06;95026.53;4980384;28;20066;-91
2022/06/12 10:44:26;;;;;;;1.95;1.38;;;;;;;26.68;66.97;95020.72;4981245;28;20061;-90
2022/06/12 10:46:52;;;;;;;6.82;1.70;;;;;;;26.73;63.23;95010.81;4980362;28;20034;-90
2022/06/12 10:49:21;;;;;;;5.95;1.60;;;;;;;27.23;62.45;95016.31;4964072;28;20023;-91
2022/06/12 10:51:47;;;;;;;2.70;1.70;;;;;;;26.66;59.28;95012.22;4964359;28;20069;-90
2022/06/12 10:54:16;;;;;;;3.28;1.67;;;;;;;26.83;70.32;95010.22;4979905;28;20367;-91
2022/06/12 10:56:46;;;;;;;3.33;1.63;;;;;;;26.72;70.61;95004.63;4980173;28;20432;-91
2022/06/12 10:59:27;;;;;;;5.50;1.63;;;;;;;27.01;68.33;94999.81;4979812;28;20038;-91
2022/06/12 11:02:16;;;;;;;3.28;1.70;;;;;;;27.46;62.98;94997.47;4980034;28;20067;-91
2022/06/12 11:04:53;;;;;;;7.93;1.90;;;;;;;27.76;57.24;94994.06;4980503;28;20050;-91
2022/06/12 11:07:37;;;;;;;4.07;1.67;;;;;;;27.62;61.48;94993.88;4979805;28;20030;-91
2022/06/12 11:10:12;;;;;;;2.78;1.75;;;;;;;27.05;60.66;94989.91;4979809;28;20039;-91
2022/06/12 11:12:50;;;;;;;4.25;1.92;;;;;;;26.83;57.92;94991.41;4979799;28;20070;-91
2022/06/12 11:15:40;;;;;;;1.85;1.40;;;;;;;27.77;60.57;94989.47;4979827;28;20502;-91
2022/06/12 11:18:25;;;;;;;3.83;1.70;;;;;;;28.32;54.68;94980.97;4980214;28;20026;-91
2022/06/12 11:21:11;;;;;;;4.15;1.50;;;;;;;28.68;55.26;94983.28;4980469;28;20400;-91
2022/06/12 11:24:00;;;;;;;2.53;1.42;;;;;;;29.25;53.20;94976.88;4980633;28;20114;-91
2022/06/12 11:26:31;;;;;;;2.65;1.63;;;;;;;29.13;52.38;94972.53;4973897;28;20101;-91
2022/06/12 11:29:09;;;;;;;3.75;1.23;;;;;;;29.17;59.49;94973.34;4980449;28;20042;-92
2022/06/12 11:31:41;;;;;;;3.97;1.80;;;;;;;28.68;57.37;94974.41;4963447;28;20038;-91
2022/06/12 11:34:21;;;;;;;1.98;1.48;;;;;;;27.69;63.67;94967.06;4979397;28;20368;-91
2022/06/12 11:37:10;;;;;;;4.13;2.15;;;;;;;27.45;55.70;94962.81;4979300;28;20027;-91
2022/06/12 11:39:44;;;;;;;4.07;1.80;;;;;;;27.90;57.63;94963.09;4979293;28;20122;-91
2022/06/12 11:42:39;;;;;;;1.65;1.45;;;;;;;28.84;55.69;94958.03;4980186;28;20348;-91
2022/06/12 11:45:10;;;;;;;2.10;1.48;;;;;;;29.27;56.04;94960.31;4980243;28;20034;-91
2022/06/12 11:47:55;;;;;;;3.13;1.67;;;;;;;28.24;64.59;94960.47;4979192;28;20460;-90
2022/06/12 11:50:35;;;;;;;9.02;1.80;;;;;;;28.38;57.03;94956.38;4978969;28;20066;-91
2022/06/12 11:53:04;;;;;;;2.88;1.40;;;;;;;29.00;55.71;94957.78;4979972;28;20038;-92
2022/06/12 11:55:41;;;;;;;3.42;1.60;;;;;;;28.22;58.19;94952.75;4962985;28;20437;-91
2022/06/12 11:58:41;;;;;;;2.45;1.70;;;;;;;27.60;58.65;94958.47;4979157;28;20046;-91
2022/06/12 12:01:21;;;;;;;4.13;1.30;;;;;;;27.85;58.20;94956.13;4979959;28;20030;-91
2022/06/12 12:04:09;;;;;;;4.22;1.73;;;;;;;29.30;54.42;94956.88;4978712;28;20326;-91
2022/06/12 12:06:55;;;;;;;4.00;1.63;;;;;;;28.96;53.08;94946.97;4978716;28;20078;-92
2022/06/12 12:09:40;;;;;;;4.78;1.63;;;;;;;29.37;57.82;94951.50;4978673;28;20077;-91
2022/06/12 12:12:12;;;;;;;3.53;1.33;;;;;;;28.77;57.15;94937.13;4979746;28;20039;-91
2022/06/12 12:14:40;;;;;;;2.92;1.30;;;;;;;28.14;59.61;94944.94;4978494;28;20050;-91
2022/06/12 12:17:13;;;;;;;3.58;2.00;;;;;;;27.33;67.94;94940.38;4978421;28;20391;-91
2022/06/12 12:19:41;;;;;;;3.42;1.50;;;;;;;27.21;59.60;94941.34;4978328;28;20050;-91
2022/06/12 12:22:17;;;;;;;3.38;1.60;;;;;;;27.43;65.17;94943.59;4978375;28;20039;-91
2022/06/12 12:24:54;;;;;;;3.13;1.65;;;;;;;27.76;56.96;94945.63;4979739;28;20093;-92
2022/06/12 12:27:41;;;;;;;2.05;1.58;;;;;;;28.62;57.95;94933.53;4978176;28;20027;-91
2022/06/12 12:30:17;;;;;;;5.05;1.70;;;;;;;28.70;57.20;94934.38;4977182;28;20054;-91
2022/06/12 12:32:42;;;;;;;3.17;1.50;;;;;;;28.32;56.43;94931.69;4978178;28;20031;-91
2022/06/12 12:35:09;;;;;;;3.67;1.58;;;;;;;28.49;59.07;94933.03;4978108;28;20035;-91
2022/06/12 12:43:16;;;;;;;4.35;1.63;;;;;;;29.18;53.98;94930.94;4979162;28;20058;-91
2022/06/12 12:45:42;;;;;;;2.90;1.73;;;;;;;29.08;55.16;94929.72;4977992;28;20031;-92
2022/06/12 12:48:10;;;;;;;3.45;1.60;;;;;;;28.56;56.66;94924.22;4978078;28;20065;-90
2022/06/12 12:50:48;;;;;;;1.67;1.42;;;;;;;29.10;56.28;94923.97;4961804;28;20057;-91
2022/06/12 12:53:29;;;;;;;5.10;1.50;;;;;;;29.03;54.63;94919.28;4977774;28;20036;-91
2022/06/12 12:55:59;;;;;;;2.35;1.52;;;;;;;29.49;54.51;94921.56;4961870;28;20031;-91
2022/06/12 12:58:25;;;;;;;1.83;1.45;;;;;;;29.81;53.60;94917.47;4977638;28;20038;-91
2022/06/12 13:01:02;;;;;;;4.93;1.42;;;;;;;29.79;56.19;94914.38;4977553;28;20035;-90
2022/06/12 13:03:32;;;;;;;2.42;1.58;;;;;;;28.83;52.23;94922.19;4961476;28;20030;-91
2022/06/12 13:06:16;;;;;;;3.47;1.60;;;;;;;29.37;54.25;94915.66;4978013;28;20121;-90
2022/06/12 13:09:03;;;;;;;2.92;1.60;;;;;;;29.54;55.00;94911.53;4977385;28;20077;-90
2022/06/12 13:11:47;;;;;;;3.97;1.45;;;;;;;30.16;52.32;94907.22;4978652;28;20031;-91
2022/06/12 13:14:45;;;;;;;3.40;1.52;;;;;;;30.01;55.99;94901.75;4978538;28;20074;-90
2022/06/12 13:17:26;;;;;;;2.97;1.77;;;;;;;30.40;51.96;94904.97;4977425;28;20027;-91
2022/06/12 13:20:10;;;;;;;1.60;1.48;;;;;;;29.54;51.33;94904.22;4977303;28;20053;-91
2022/06/12 13:22:51;;;;;;;4.30;1.50;;;;;;;29.45;53.26;94893.78;4978434;28;20061;-90
2022/06/12 13:25:23;;;;;;;4.70;1.40;;;;;;;30.12;51.20;94885.59;4977343;28;20042;-91
2022/06/12 13:27:53;;;;;;;3.28;1.77;;;;;;;29.96;54.53;94890.53;4977118;28;20512;-90
2022/06/12 13:30:23;;;;;;;4.60;1.60;;;;;;;29.97;51.44;94882.03;4961668;28;20054;-91
2022/06/12 13:32:48;;;;;;;3.20;1.60;;;;;;;30.43;51.31;94886.06;4977048;28;20114;-91
2022/06/12 13:35:29;;;;;;;2.08;1.38;;;;;;;30.58;51.42;94880.66;4977415;28;20421;-91
2022/06/12 13:37:58;;;;;;;5.35;1.58;;;;;;;29.94;49.25;94885.50;4977406;28;20033;-92